Time;durP1;ratioP1;P1;durP2;ratioP2;P2;SDS_P1;SDS_P2;PMS_P1;PMS_P2;Temp;Humidity;BMP_temperature;BMP_pressure;BME280_temperature;BME280_humidity;BME280_pressure;Samples;Min_cycle;Max_cycle;Signal;HPM_P1;HPM_P2
2021/12/02 00:01:14;;;;;;;1.13;0.98;;;;;;;6.25;77.49;94969.78;5038966;28;20053;-76
2021/12/02 00:03:42;;;;;;;0.82;0.52;;;;;;;6.25;77.25;94970.59;5038427;28;20565;-76
2021/12/02 00:06:12;;;;;;;3.33;0.70;;;;;;;6.26;77.08;94974.00;5037087;28;20056;-75
2021/12/02 00:08:41;;;;;;;0.60;0.55;;;;;;;6.26;77.00;94981.75;5038391;28;20439;-76
2021/12/02 00:11:09;;;;;;;0.55;0.40;;;;;;;6.25;76.62;94980.16;5038507;28;20053;-76
2021/12/02 00:13:45;;;;;;;0.43;0.43;;;;;;;6.23;76.05;94982.94;5037897;28;20045;-77
2021/12/02 00:16:22;;;;;;;1.20;0.80;;;;;;;6.22;76.37;94980.53;5037202;28;20511;-75
2021/12/02 00:21:37;;;;;;;1.88;1.00;;;;;;;6.26;77.66;94987.72;5038030;28;20526;-75
2021/12/02 00:24:07;;;;;;;1.55;1.05;;;;;;;6.27;77.04;94993.69;5038484;28;20045;-75
2021/12/02 00:26:38;;;;;;;1.80;1.08;;;;;;;6.27;77.10;94985.94;5039234;28;20526;-75
2021/12/02 00:29:08;;;;;;;1.45;1.17;;;;;;;6.27;77.25;94988.53;5038566;28;20056;-76
2021/12/02 00:31:38;;;;;;;2.88;1.25;;;;;;;6.27;78.15;95004.06;5038314;28;20053;-76
2021/12/02 00:34:09;;;;;;;1.35;0.90;;;;;;;6.29;78.14;95012.44;5038777;28;20042;-76
2021/12/02 00:36:39;;;;;;;1.75;1.20;;;;;;;6.31;78.10;95010.44;5037823;28;20084;-76
2021/12/02 00:39:09;;;;;;;0.82;0.82;;;;;;;6.29;77.77;95005.47;5038273;28;20068;-75
2021/12/02 00:41:37;;;;;;;1.00;0.75;;;;;;;6.29;78.02;95002.06;5038304;28;20057;-75
2021/12/02 00:44:05;;;;;;;0.90;0.82;;;;;;;6.28;77.63;94995.31;5038044;28;20049;-76
2021/12/02 00:46:34;;;;;;;1.88;0.80;;;;;;;6.28;77.90;95010.84;5037916;28;20053;-76
2021/12/02 00:49:06;;;;;;;2.70;1.25;;;;;;;6.29;78.01;95010.63;5036174;28;20435;-76
2021/12/02 00:51:36;;;;;;;1.42;0.88;;;;;;;6.29;78.22;95002.88;5036213;28;20057;-77
2021/12/02 00:54:06;;;;;;;2.97;0.65;;;;;;;6.29;77.06;95013.22;5036037;28;20037;-76
2021/12/02 00:56:34;;;;;;;1.08;1.00;;;;;;;6.29;77.93;95009.84;5035324;28;20525;-76
2021/12/02 00:59:04;;;;;;;0.60;0.60;;;;;;;6.29;77.55;95017.59;5036068;28;20045;-76
2021/12/02 01:01:35;;;;;;;0.88;0.63;;;;;;;6.28;76.63;95005.66;5035269;28;20053;-76
2021/12/02 01:04:08;;;;;;;1.40;0.90;;;;;;;6.26;76.49;95007.66;5035749;28;20084;-76
2021/12/02 01:06:36;;;;;;;0.95;0.63;;;;;;;6.27;76.95;95009.25;5036904;28;20060;-78
2021/12/02 01:09:04;;;;;;;1.70;0.73;;;;;;;6.27;77.01;95009.25;5036951;28;20049;-75
2021/12/02 01:11:33;;;;;;;0.85;0.50;;;;;;;6.27;76.89;95009.25;5037069;28;20515;-76
2021/12/02 01:14:00;;;;;;;1.02;0.70;;;;;;;6.25;77.08;95006.84;5037177;28;20080;-76
2021/12/02 01:16:28;;;;;;;0.82;0.82;;;;;;;6.23;76.83;95015.78;5035604;28;20057;-76
2021/12/02 01:18:56;;;;;;;0.82;0.82;;;;;;;6.23;77.53;95020.97;5037321;28;20045;-78
2021/12/02 01:21:28;;;;;;;3.63;0.68;;;;;;;6.24;76.31;95022.59;5035490;28;20408;-76
2021/12/02 01:24:01;;;;;;;1.17;0.80;;;;;;;6.24;77.22;95020.00;5036302;28;20060;-76
2021/12/02 01:26:30;;;;;;;1.02;0.70;;;;;;;6.22;76.97;95019.38;5036788;28;20068;-78
2021/12/02 01:28:58;;;;;;;2.47;1.13;;;;;;;6.23;77.50;95018.38;5035728;28;20061;-76
2021/12/02 01:31:31;;;;;;;1.02;0.80;;;;;;;6.24;77.78;95020.78;5036666;28;20060;-76
2021/12/02 01:34:01;;;;;;;0.50;0.50;;;;;;;6.22;77.24;95020.19;5036294;28;20436;-76
2021/12/02 01:36:34;;;;;;;1.17;0.50;;;;;;;6.19;77.10;95013.59;5036642;28;20061;-76
2021/12/02 01:39:04;;;;;;;0.60;0.60;;;;;;;6.19;76.90;95018.78;5036206;28;20053;-76
2021/12/02 01:41:37;;;;;;;1.02;0.60;;;;;;;6.19;77.21;95023.97;5035940;28;20052;-76
2021/12/02 01:44:10;;;;;;;1.15;0.98;;;;;;;6.19;77.55;95026.53;5035950;28;20060;-75
2021/12/02 01:46:38;;;;;;;0.68;0.52;;;;;;;6.18;77.28;95021.56;5035125;28;20434;-76
2021/12/02 01:49:08;;;;;;;0.77;0.65;;;;;;;6.17;77.06;95013.00;5035126;28;20061;-80
2021/12/02 01:51:41;;;;;;;1.15;0.85;;;;;;;6.18;77.49;95016.38;5036770;28;20431;-76
2021/12/02 01:54:10;;;;;;;3.15;1.20;;;;;;;6.15;76.50;95020.16;5037791;28;20052;-75
2021/12/02 01:56:43;;;;;;;0.65;0.60;;;;;;;6.13;76.19;95013.56;5038038;28;20060;-78
2021/12/02 01:59:11;;;;;;;;;;;;;;;6.15;76.54;95012.38;5038897;28;20052;-76
2021/12/02 02:01:41;;;;;;;0.57;0.40;;;;;;;6.14;77.22;95021.16;5037471;28;19925;-76
2021/12/02 02:04:10;;;;;;;1.38;0.65;;;;;;;6.13;77.21;95019.53;5036639;28;20053;-76
2021/12/02 02:06:41;;;;;;;3.13;0.52;;;;;;;6.14;77.01;95015.16;5036723;28;20061;-76
2021/12/02 02:09:11;;;;;;;1.45;0.77;;;;;;;6.13;76.81;95013.56;5036880;28;20080;-75
2021/12/02 02:11:39;;;;;;;0.73;0.52;;;;;;;6.13;76.43;95018.75;5036628;28;20194;-76
2021/12/02 02:14:09;;;;;;;2.45;0.47;;;;;;;6.12;76.69;95015.38;5035760;28;20049;-75
2021/12/02 02:16:38;;;;;;;1.45;0.50;;;;;;;6.12;76.50;95017.13;5035712;28;20057;-76
2021/12/02 02:19:08;;;;;;;0.77;0.40;;;;;;;6.10;75.67;95016.53;5036346;28;20107;-78
2021/12/02 02:21:37;;;;;;;0.90;0.40;;;;;;;6.08;75.98;95015.91;5035551;28;20053;-78
2021/12/02 02:24:08;;;;;;;0.63;0.30;;;;;;;6.08;76.62;95016.75;5034861;28;20057;-77
2021/12/02 02:26:36;;;;;;;0.50;0.30;;;;;;;6.08;76.73;95014.16;5035631;28;20419;-77
2021/12/02 02:29:05;;;;;;;0.43;0.30;;;;;;;6.08;76.26;95018.50;5035244;28;20053;-76
2021/12/02 02:31:34;;;;;;;1.08;0.45;;;;;;;6.05;75.81;95016.31;5035152;28;20045;-78
2021/12/02 02:34:02;;;;;;;0.65;0.40;;;;;;;6.03;75.52;95013.91;5034885;28;20045;-76
2021/12/02 02:36:34;;;;;;;0.80;0.35;;;;;;;5.99;75.56;95012.69;5033919;28;20057;-78
2021/12/02 02:39:04;;;;;;;1.00;0.30;;;;;;;6.00;76.22;95014.31;5034480;28;20064;-77
2021/12/02 02:41:35;;;;;;;0.75;0.40;;;;;;;5.99;74.86;95010.09;5034693;28;20053;-77
2021/12/02 02:44:03;;;;;;;0.50;0.40;;;;;;;5.93;74.57;95009.06;5033953;28;20045;-76
2021/12/02 02:46:33;;;;;;;0.77;0.60;;;;;;;5.90;74.83;94993.94;5033277;28;20053;-75
2021/12/02 02:49:05;;;;;;;0.47;0.47;;;;;;;5.87;75.40;95009.81;5033710;28;20064;-76
2021/12/02 02:51:34;;;;;;;0.40;0.32;;;;;;;5.84;75.83;95012.00;5034134;28;20057;-78
2021/12/02 02:54:05;;;;;;;2.20;0.70;;;;;;;5.82;74.71;95021.75;5034683;28;20053;-76
2021/12/02 02:56:36;;;;;;;0.80;0.68;;;;;;;5.81;75.88;95015.75;5034306;28;20052;-77
2021/12/02 02:59:11;;;;;;;1.65;0.73;;;;;;;5.82;76.00;95024.34;5036816;28;20049;-76
2021/12/02 03:01:49;;;;;;;0.75;0.50;;;;;;;5.80;76.35;95015.97;5035749;28;20052;-75
2021/12/02 03:04:31;;;;;;;0.40;0.40;;;;;;;5.81;75.84;95014.97;5035572;28;20204;-75
2021/12/02 03:07:02;;;;;;;0.60;0.50;;;;;;;5.82;76.78;95016.59;5036479;28;20045;-78
2021/12/02 03:09:48;;;;;;;0.52;0.45;;;;;;;5.82;77.17;95022.56;5036680;28;20196;-76
2021/12/02 03:12:26;;;;;;;2.25;0.50;;;;;;;5.81;77.04;95020.94;5036423;28;20542;-76
2021/12/02 03:17:42;;;;;;;0.45;0.45;;;;;;;5.74;76.17;95018.31;5034903;28;20060;-76
2021/12/02 03:20:11;;;;;;;0.40;0.40;;;;;;;5.73;76.31;95016.72;5035565;28;20060;-77
2021/12/02 03:22:38;;;;;;;0.57;0.47;;;;;;;5.74;76.99;95017.53;5035052;28;20510;-76
2021/12/02 03:25:09;;;;;;;0.95;0.40;;;;;;;5.75;77.70;95017.34;5036057;28;20050;-76
2021/12/02 03:27:37;;;;;;;1.45;0.40;;;;;;;5.75;77.37;95014.75;5039373;28;20460;-76
2021/12/02 03:30:07;;;;;;;1.00;0.40;;;;;;;5.72;77.31;95012.53;5039397;28;20061;-76
2021/12/02 03:32:36;;;;;;;1.08;0.40;;;;;;;5.72;77.30;95011.75;5039750;28;20050;-74
2021/12/02 03:35:06;;;;;;;0.65;0.60;;;;;;;5.70;76.70;95005.94;5039094;28;20050;-77
2021/12/02 03:37:33;;;;;;;1.33;0.50;;;;;;;5.70;77.01;95014.50;5038598;28;20045;-78
2021/12/02 03:40:01;;;;;;;1.60;1.10;;;;;;;5.69;77.21;95012.91;5039420;28;20053;-76
2021/12/02 03:42:30;;;;;;;1.52;1.10;;;;;;;5.67;76.99;95009.72;5038778;28;20518;-76
2021/12/02 03:44:57;;;;;;;1.17;0.60;;;;;;;5.66;77.45;95015.88;5038459;28;20053;-78
2021/12/02 03:47:25;;;;;;;0.82;0.60;;;;;;;5.65;77.76;95005.72;5037411;28;20049;-76
2021/12/02 03:49:52;;;;;;;0.52;0.43;;;;;;;5.62;77.60;94999.16;5038965;28;20049;-76
2021/12/02 03:52:20;;;;;;;0.47;0.40;;;;;;;5.61;77.26;95004.50;5038878;28;20057;-76
2021/12/02 03:54:47;;;;;;;1.23;0.40;;;;;;;5.60;77.21;94995.97;5039135;28;20050;-76
2021/12/02 03:57:15;;;;;;;0.70;0.50;;;;;;;5.58;77.40;94998.72;5038131;28;20049;-75
2021/12/02 03:59:44;;;;;;;3.80;0.52;;;;;;;5.58;77.81;94997.94;5038227;28;20499;-76
2021/12/02 04:02:11;;;;;;;1.10;0.50;;;;;;;5.56;76.43;95007.66;5038299;28;20076;-75
2021/12/02 04:04:39;;;;;;;1.02;0.32;;;;;;;5.53;75.86;95008.03;5037805;28;20049;-76
2021/12/02 04:07:06;;;;;;;0.85;0.50;;;;;;;5.52;76.62;95003.84;5037743;28;20501;-77
2021/12/02 04:09:39;;;;;;;1.95;0.70;;;;;;;5.53;77.05;95002.84;5039295;28;20451;-75
2021/12/02 04:12:11;;;;;;;1.95;0.70;;;;;;;5.54;77.43;95014.81;5038897;28;20049;-74
2021/12/02 04:14:43;;;;;;;1.92;0.90;;;;;;;5.52;77.18;95007.25;5039880;28;20060;-75
2021/12/02 04:17:13;;;;;;;0.88;0.50;;;;;;;5.49;77.11;95009.41;5039002;28;20045;-75
2021/12/02 04:19:41;;;;;;;2.05;0.52;;;;;;;5.45;75.98;95027.09;5038666;28;20128;-74
2021/12/02 04:22:08;;;;;;;1.30;0.68;;;;;;;5.45;77.10;95015.94;5038145;28;20052;-75
2021/12/02 04:24:36;;;;;;;0.63;0.43;;;;;;;5.46;77.45;95020.91;5038857;28;20056;-75
2021/12/02 04:27:04;;;;;;;1.75;0.73;;;;;;;5.47;77.55;95012.19;5037775;28;20054;-74
2021/12/02 04:29:31;;;;;;;0.20;0.20;;;;;;;5.50;77.66;95011.00;5037572;28;20045;-74
2021/12/02 04:31:59;;;;;;;1.35;0.73;;;;;;;5.52;77.74;95019.38;5036713;28;20053;-76
2021/12/02 04:34:28;;;;;;;2.22;0.50;;;;;;;5.54;77.63;95015.59;5036455;28;20421;-75
2021/12/02 04:36:55;;;;;;;2.53;1.30;;;;;;;5.54;77.51;95007.84;5035716;28;20056;-76
2021/12/02 04:39:22;;;;;;;0.55;0.55;;;;;;;5.53;77.49;95008.03;5037329;28;20057;-75
2021/12/02 04:41:50;;;;;;;1.45;0.63;;;;;;;5.51;76.94;95007.41;5036863;28;20054;-75
2021/12/02 04:44:18;;;;;;;0.95;0.57;;;;;;;5.49;76.34;94999.06;5036498;28;20053;-77
2021/12/02 04:46:46;;;;;;;1.60;0.70;;;;;;;5.43;76.11;94998.03;5035271;28;20054;-76
2021/12/02 04:49:14;;;;;;;0.55;0.50;;;;;;;5.40;77.10;95002.78;5036137;28;20053;-76
2021/12/02 04:51:43;;;;;;;3.28;0.75;;;;;;;5.37;77.42;94997.00;5036063;28;20049;-75
2021/12/02 04:54:11;;;;;;;1.17;0.55;;;;;;;5.34;76.95;94994.78;5038753;28;20080;-74
2021/12/02 04:56:39;;;;;;;0.77;0.50;;;;;;;5.32;77.38;94996.75;5036626;28;20046;-74
2021/12/02 04:59:06;;;;;;;1.05;0.43;;;;;;;5.30;76.60;94993.56;5037043;28;20049;-74
2021/12/02 05:01:34;;;;;;;1.10;1.00;;;;;;;5.27;76.85;95001.72;5037360;28;20051;-75
2021/12/02 05:04:02;;;;;;;1.52;0.50;;;;;;;5.26;76.64;95000.09;5037329;28;20141;-75
2021/12/02 05:06:30;;;;;;;0.77;0.60;;;;;;;5.23;76.09;94995.31;5037019;28;20400;-74
2021/12/02 05:08:58;;;;;;;2.25;0.70;;;;;;;5.23;75.82;94999.69;5038849;28;20053;-77
2021/12/02 05:11:26;;;;;;;1.55;1.02;;;;;;;5.19;75.74;95008.81;5037544;28;20069;-76
2021/12/02 05:13:54;;;;;;;1.52;0.80;;;;;;;5.18;76.90;95007.97;5036430;28;20057;-73
2021/12/02 05:16:21;;;;;;;0.77;0.50;;;;;;;5.18;76.71;95005.41;5035402;28;20053;-73
2021/12/02 05:18:49;;;;;;;0.60;0.40;;;;;;;5.15;76.38;95000.59;5036143;28;20099;-73
2021/12/02 05:21:16;;;;;;;0.80;0.60;;;;;;;5.12;75.77;95001.00;5036853;28;20092;-74
2021/12/02 05:23:44;;;;;;;1.92;0.50;;;;;;;5.09;76.04;94991.00;5037030;28;20049;-73
2021/12/02 05:26:13;;;;;;;1.38;0.50;;;;;;;5.09;76.43;95001.34;5036015;28;20144;-75
2021/12/02 05:28:41;;;;;;;0.85;0.60;;;;;;;5.10;77.30;94998.59;5036413;28;20062;-75
2021/12/02 05:31:08;;;;;;;1.40;0.70;;;;;;;5.12;77.32;94996.63;5037018;28;20103;-76
2021/12/02 05:33:36;;;;;;;1.42;0.90;;;;;;;5.12;77.36;95006.16;5028429;28;20042;-77
2021/12/02 05:36:03;;;;;;;1.42;0.75;;;;;;;5.12;78.14;95003.59;5020065;28;20388;-76
2021/12/02 05:38:31;;;;;;;1.40;0.40;;;;;;;5.09;76.90;95007.31;5036286;28;20057;-76
2021/12/02 05:40:59;;;;;;;4.25;0.80;;;;;;;5.05;76.40;94998.34;5027181;28;20053;-78
2021/12/02 05:43:28;;;;;;;0.32;0.32;;;;;;;5.03;76.37;95002.91;5016195;28;20050;-76
2021/12/02 05:45:56;;;;;;;2.95;0.98;;;;;;;5.03;76.27;94997.75;5015512;28;20050;-77
2021/12/02 05:48:23;;;;;;;1.77;1.60;;;;;;;5.05;77.09;94992.38;5014226;28;20054;-75
2021/12/02 05:50:51;;;;;;;0.73;0.60;;;;;;;5.07;77.47;95006.72;5034572;28;20523;-78
2021/12/02 05:53:19;;;;;;;118.03;62.40;;;;;;;5.08;77.26;95000.56;5035690;28;20423;-77
2021/12/02 05:55:47;;;;;;;38.25;20.15;;;;;;;5.10;76.78;95000.38;5018627;28;20053;-76
2021/12/02 05:58:15;;;;;;;5.47;3.15;;;;;;;5.13;77.41;95000.00;5021101;28;20046;-76
2021/12/02 06:00:44;;;;;;;1.33;1.05;;;;;;;5.15;77.63;94987.69;5020835;28;20082;-78
2021/12/02 06:03:12;;;;;;;2.40;0.85;;;;;;;5.17;78.04;94988.31;5015255;28;20060;-74
2021/12/02 06:05:39;;;;;;;1.60;0.93;;;;;;;5.18;78.05;94994.25;5013239;28;20064;-75
2021/12/02 06:08:07;;;;;;;2.47;1.27;;;;;;;5.18;77.73;94992.47;5013145;28;20057;-72
2021/12/02 06:10:34;;;;;;;2.25;0.85;;;;;;;5.18;77.80;94995.06;5013472;28;20080;-72
2021/12/02 06:13:02;;;;;;;0.68;0.60;;;;;;;5.19;77.29;95007.00;5013204;28;20049;-72
2021/12/02 06:15:29;;;;;;;1.48;0.70;;;;;;;5.19;77.62;95006.22;5013050;28;20054;-73
2021/12/02 06:17:58;;;;;;;0.75;0.60;;;;;;;5.19;77.92;94996.66;5012644;28;20073;-73
2021/12/02 06:20:26;;;;;;;1.95;0.77;;;;;;;5.20;77.75;94995.66;5013753;28;20061;-73
2021/12/02 06:22:53;;;;;;;2.67;0.68;;;;;;;5.18;77.31;94992.47;5014729;28;20057;-75
2021/12/02 06:28:07;;;;;;;2.28;0.80;;;;;;;5.20;77.39;95003.41;5015231;28;20042;-74
2021/12/02 06:30:34;;;;;;;1.83;0.95;;;;;;;5.19;77.07;95012.19;5015428;28;20057;-74
2021/12/02 06:33:04;;;;;;;1.77;0.80;;;;;;;5.20;78.22;95008.59;5015290;28;20607;-73
2021/12/02 06:35:38;;;;;;;1.23;0.90;;;;;;;5.25;78.39;95010.66;5015277;28;20046;-74
2021/12/02 06:38:06;;;;;;;1.02;0.93;;;;;;;5.28;78.47;95011.06;5015682;28;20045;-74
2021/12/02 06:40:34;;;;;;;3.53;1.15;;;;;;;5.30;78.76;95010.88;5016324;28;20077;-72
2021/12/02 06:43:02;;;;;;;1.10;0.90;;;;;;;5.32;78.20;95011.47;5016084;28;20523;-73
2021/12/02 06:45:31;;;;;;;4.72;0.70;;;;;;;5.31;77.73;95015.88;5015837;28;20051;-73
2021/12/02 06:47:59;;;;;;;1.25;1.00;;;;;;;5.25;77.42;95018.41;5015090;28;20061;-72
2021/12/02 06:50:31;;;;;;;1.17;0.47;;;;;;;5.26;77.28;95017.41;5015029;28;20057;-73
2021/12/02 06:52:58;;;;;;;0.82;0.75;;;;;;;5.24;77.62;95015.00;5015334;28;20431;-73
2021/12/02 06:55:26;;;;;;;1.02;0.60;;;;;;;5.26;78.21;95005.25;5014921;28;20057;-73
2021/12/02 06:57:54;;;;;;;0.65;0.52;;;;;;;5.26;77.22;95004.47;5013611;28;20053;-72
2021/12/02 07:00:23;;;;;;;1.60;0.70;;;;;;;5.22;76.77;95013.59;5013999;28;20057;-72
2021/12/02 07:02:52;;;;;;;0.88;0.80;;;;;;;5.22;77.56;95011.00;5013754;28;20050;-73
2021/12/02 07:05:24;;;;;;;0.65;0.65;;;;;;;5.23;77.84;95021.16;5014525;28;20069;-72
2021/12/02 07:07:53;;;;;;;1.55;0.75;;;;;;;5.24;77.38;95019.38;5013520;28;20145;-72
2021/12/02 07:10:24;;;;;;;1.63;0.70;;;;;;;5.25;77.96;95021.78;5013443;28;20057;-74
2021/12/02 07:12:55;;;;;;;0.88;0.60;;;;;;;5.26;77.66;95018.19;5013926;28;20439;-74
2021/12/02 07:15:27;;;;;;;2.20;1.38;;;;;;;5.26;77.68;95018.19;5013429;28;20054;-75
2021/12/02 07:17:57;;;;;;;1.13;1.00;;;;;;;5.27;77.78;95024.97;5015819;28;20052;-74
2021/12/02 07:20:25;;;;;;;0.77;0.77;;;;;;;5.26;77.27;95025.94;5016411;28;20046;-73
2021/12/02 07:22:54;;;;;;;1.48;0.95;;;;;;;5.28;77.67;95026.56;5016435;28;20056;-73
2021/12/02 07:25:22;;;;;;;1.17;0.70;;;;;;;5.28;77.05;95025.78;5015774;28;20050;-73
2021/12/02 07:27:49;;;;;;;1.77;0.90;;;;;;;5.26;77.26;95028.53;5015145;28;20065;-74
2021/12/02 07:30:17;;;;;;;3.05;0.88;;;;;;;5.27;76.93;95040.50;5015617;28;20069;-73
2021/12/02 07:32:52;;;;;;;2.95;1.20;;;;;;;5.26;77.67;95038.09;5015333;28;20099;-73
2021/12/02 07:35:20;;;;;;;2.45;0.80;;;;;;;5.23;77.19;95041.84;5016125;28;20054;-73
2021/12/02 07:37:54;;;;;;;1.50;0.80;;;;;;;5.20;76.14;95049.16;5014883;28;20534;-73
2021/12/02 07:40:24;;;;;;;3.72;2.08;;;;;;;5.17;76.74;95050.34;5015168;28;20054;-74
2021/12/02 07:42:53;;;;;;;0.45;0.45;;;;;;;5.15;76.54;95052.31;5014426;28;20073;-74
2021/12/02 07:45:26;;;;;;;0.82;0.55;;;;;;;5.13;77.10;95049.09;5014559;28;20046;-74
2021/12/02 07:47:53;;;;;;;;;;;;;;;5.15;77.55;95054.88;5014693;28;20140;-74
2021/12/02 07:50:21;;;;;;;0.50;0.50;;;;;;;5.13;77.41;95055.06;5014794;28;19976;-75
2021/12/02 07:52:52;;;;;;;1.23;1.13;;;;;;;5.12;77.50;95044.94;5014426;28;20104;-73
2021/12/02 07:55:21;;;;;;;0.52;0.50;;;;;;;5.13;76.91;95041.34;5014194;28;20050;-74
2021/12/02 07:57:50;;;;;;;1.08;0.68;;;;;;;5.14;77.71;95043.75;5013548;28;20052;-73
2021/12/02 08:00:21;;;;;;;0.50;0.50;;;;;;;5.16;76.68;95043.59;5013976;28;20424;-74
2021/12/02 08:02:50;;;;;;;0.70;0.70;;;;;;;5.19;76.68;95042.41;5014013;28;20230;-74
2021/12/02 08:05:21;;;;;;;1.70;0.60;;;;;;;5.20;76.89;95038.81;5013848;28;20046;-75
2021/12/02 08:07:48;;;;;;;1.27;0.60;;;;;;;5.21;77.11;95035.25;5013860;28;20060;-73
2021/12/02 08:10:17;;;;;;;1.73;0.70;;;;;;;5.22;77.13;95034.25;5014204;28;20053;-73
2021/12/02 08:12:50;;;;;;;0.95;0.50;;;;;;;5.24;77.77;95040.84;5015478;28;20049;-74
2021/12/02 08:15:21;;;;;;;0.50;0.30;;;;;;;5.26;77.32;95032.91;5017363;28;20116;-74
2021/12/02 08:17:49;;;;;;;1.98;0.70;;;;;;;5.29;77.56;95037.69;5016749;28;20053;-74
2021/12/02 08:20:18;;;;;;;0.52;0.40;;;;;;;5.29;76.42;95033.34;5016823;28;20061;-77
2021/12/02 08:22:46;;;;;;;0.50;0.50;;;;;;;5.33;76.37;95042.31;5017156;28;20423;-74
2021/12/02 08:25:14;;;;;;;0.40;0.40;;;;;;;5.34;76.74;95035.38;5016730;28;20054;-73
2021/12/02 08:27:42;;;;;;;1.17;0.77;;;;;;;5.34;76.86;95038.75;5016522;28;20427;-74
2021/12/02 08:30:13;;;;;;;0.82;0.60;;;;;;;5.34;76.33;95035.38;5016757;28;20440;-74
2021/12/02 08:32:45;;;;;;;1.00;0.50;;;;;;;5.37;76.96;95037.56;5016920;28;20046;-74
2021/12/02 08:35:14;;;;;;;3.30;1.00;;;;;;;5.39;77.15;95030.44;5017264;28;20077;-74
2021/12/02 08:37:44;;;;;;;0.70;0.60;;;;;;;5.40;76.32;95033.81;5016736;28;20072;-73
2021/12/02 08:40:15;;;;;;;0.32;0.32;;;;;;;5.42;75.91;95050.72;5018383;28;20056;-73
2021/12/02 08:42:43;;;;;;;1.25;0.60;;;;;;;5.42;76.37;95042.97;5017829;28;20058;-73
2021/12/02 08:45:11;;;;;;;1.27;0.32;;;;;;;5.43;76.09;95043.78;5017942;28;20054;-73
2021/12/02 08:47:44;;;;;;;1.42;0.43;;;;;;;5.41;75.02;95045.75;5017439;28;20057;-73
2021/12/02 08:50:14;;;;;;;0.80;0.60;;;;;;;5.42;75.29;95047.34;5018571;28;20053;-73
2021/12/02 08:52:42;;;;;;;1.13;0.60;;;;;;;5.42;75.34;95048.13;5017380;28;20050;-72
2021/12/02 08:55:10;;;;;;;1.20;0.40;;;;;;;5.44;75.75;95051.34;5017542;28;20065;-75
2021/12/02 08:57:46;;;;;;;0.98;0.60;;;;;;;5.46;75.74;95053.75;5017360;28;20046;-74
2021/12/02 09:00:16;;;;;;;1.30;0.60;;;;;;;5.48;74.93;95051.78;5017492;28;20046;-73
2021/12/02 09:02:44;;;;;;;2.08;1.10;;;;;;;5.48;74.89;95051.78;5017089;28;20054;-74
2021/12/02 09:05:13;;;;;;;2.67;0.98;;;;;;;5.48;74.05;95055.16;5017174;28;20096;-74
2021/12/02 09:07:41;;;;;;;0.75;0.75;;;;;;;5.50;74.55;95037.66;5017031;28;20049;-72
2021/12/02 09:10:10;;;;;;;1.35;0.57;;;;;;;5.53;75.41;95045.06;5017525;28;20050;-72
2021/12/02 09:12:37;;;;;;;0.40;0.40;;;;;;;5.57;75.68;95040.28;5017976;28;20046;-74
2021/12/02 09:15:07;;;;;;;2.30;0.88;;;;;;;5.63;76.02;95041.34;5017248;28;20058;-75
2021/12/02 09:17:35;;;;;;;5.10;0.70;;;;;;;5.67;75.54;95040.75;5017197;28;20510;-74
2021/12/02 09:20:03;;;;;;;0.65;0.65;;;;;;;5.71;75.16;95043.78;5017184;28;20049;-74
2021/12/02 09:22:32;;;;;;;0.70;0.70;;;;;;;5.72;75.58;95043.56;5017572;28;20050;-74
2021/12/02 09:25:03;;;;;;;0.90;0.50;;;;;;;5.73;75.51;95039.22;5017891;28;20053;-73
2021/12/02 09:27:30;;;;;;;0.73;0.60;;;;;;;5.71;75.13;95033.44;5017006;28;20061;-76
2021/12/02 09:29:58;;;;;;;2.05;0.47;;;;;;;5.70;74.76;95045.56;5017648;28;20050;-74
2021/12/02 09:32:25;;;;;;;1.85;0.70;;;;;;;5.68;74.63;95038.97;5018099;28;20057;-73
2021/12/02 09:34:53;;;;;;;1.33;0.65;;;;;;;5.67;74.75;95042.56;5017783;28;20046;-71
2021/12/02 09:37:21;;;;;;;0.93;0.80;;;;;;;5.65;75.34;95042.75;5017074;28;20330;-73
2021/12/02 09:39:49;;;;;;;1.13;0.82;;;;;;;5.64;74.13;95051.50;5017139;28;20050;-75
2021/12/02 09:42:17;;;;;;;1.52;0.80;;;;;;;5.61;74.09;95049.28;5017293;28;20058;-72
2021/12/02 09:44:58;;;;;;;1.23;0.95;;;;;;;5.59;73.85;95043.50;5017289;28;20045;-74
2021/12/02 09:47:26;;;;;;;1.30;0.90;;;;;;;5.59;74.86;95053.84;5038230;23;20060;-75
2021/12/02 09:49:54;;;;;;;0.70;0.70;;;;;;;5.59;75.15;95048.66;5035056;28;20045;-75
2021/12/02 09:52:29;;;;;;;1.35;1.00;;;;;;;5.58;74.54;95052.25;5034214;28;20060;-75
2021/12/02 09:55:03;;;;;;;2.88;0.90;;;;;;;5.60;74.18;95047.69;5033620;28;20049;-75
2021/12/02 09:57:35;;;;;;;1.10;0.63;;;;;;;5.63;73.93;95034.38;5034364;28;20052;-75
2021/12/02 10:00:05;;;;;;;2.07;0.50;;;;;;;5.68;74.07;95037.19;5034466;28;20049;-75
2021/12/02 10:02:39;;;;;;;1.98;0.85;;;;;;;5.72;73.57;95028.06;5034159;28;20498;-75
2021/12/02 10:05:11;;;;;;;2.38;1.10;;;;;;;5.84;74.51;95030.94;5034123;28;20061;-75
2021/12/02 10:07:53;;;;;;;1.00;0.85;;;;;;;5.98;73.63;95024.06;5033795;28;20052;-75
2021/12/02 10:10:30;;;;;;;0.77;0.77;;;;;;;6.09;73.89;95022.72;5034190;28;20431;-75
2021/12/02 10:13:12;;;;;;;1.77;0.60;;;;;;;6.20;72.82;95014.38;5034361;28;20053;-75
2021/12/02 10:15:41;;;;;;;0.93;0.80;;;;;;;6.31;74.21;95011.25;5033858;28;20049;-75
2021/12/02 10:18:10;;;;;;;0.80;0.80;;;;;;;6.44;73.67;95004.53;5033787;28;20052;-75
2021/12/02 10:20:41;;;;;;;1.25;0.90;;;;;;;6.58;73.22;95003.53;5033494;28;20041;-75
2021/12/02 10:23:15;;;;;;;2.45;1.10;;;;;;;6.75;73.25;95001.41;5033891;28;20098;-75
2021/12/02 10:25:48;;;;;;;1.33;1.00;;;;;;;6.86;70.23;95000.81;5033230;28;20045;-75
2021/12/02 10:28:18;;;;;;;1.58;0.70;;;;;;;6.92;70.83;95012.97;5033549;28;20049;-75
2021/12/02 10:30:48;;;;;;;0.68;0.65;;;;;;;6.91;70.02;94990.66;5033601;28;20048;-75
2021/12/02 10:33:29;;;;;;;1.42;1.00;;;;;;;6.86;69.45;94987.84;5034038;28;20053;-75
2021/12/02 10:35:57;;;;;;;2.08;0.98;;;;;;;6.80;69.86;94988.66;5032419;28;20049;-75
2021/12/02 10:38:37;;;;;;;2.20;1.58;;;;;;;6.76;71.69;94987.47;5033343;28;20052;-75
2021/12/02 10:41:08;;;;;;;1.85;1.40;;;;;;;6.72;71.97;94986.25;5033314;28;20055;-75
2021/12/02 10:43:36;;;;;;;1.73;1.52;;;;;;;6.70;72.12;94983.84;5033123;28;20068;-76
2021/12/02 10:46:15;;;;;;;4.18;2.83;;;;;;;6.71;72.70;94984.63;5033011;28;20053;-75
2021/12/02 10:48:48;;;;;;;4.22;2.53;;;;;;;6.68;71.76;94987.63;5033483;28;20049;-75
2021/12/02 10:51:38;;;;;;;3.83;2.42;;;;;;;6.66;71.30;94981.84;5033032;28;20052;-75
2021/12/02 10:54:12;;;;;;;6.70;3.72;;;;;;;6.63;72.78;94984.84;5032154;28;20053;-75
2021/12/02 10:56:42;;;;;;;3.72;1.95;;;;;;;6.57;72.93;94983.81;5032573;28;20064;-75
2021/12/02 10:59:30;;;;;;;4.45;2.55;;;;;;;6.51;70.37;94982.81;5033077;28;20045;-75
2021/12/02 11:02:01;;;;;;;4.00;2.50;;;;;;;6.47;71.97;94984.22;5032638;28;20057;-75
2021/12/02 11:04:36;;;;;;;29.08;8.18;;;;;;;6.45;71.42;94991.38;5033102;28;20057;-75
2021/12/02 11:07:09;;;;;;;6.68;3.65;;;;;;;6.44;72.64;94979.41;5048468;28;20053;-74
2021/12/02 11:09:38;;;;;;;4.97;2.45;;;;;;;6.43;73.61;94987.38;5054121;28;20055;-75
2021/12/02 11:12:11;;;;;;;3.58;2.63;;;;;;;6.36;72.75;95002.88;5045639;28;20065;-75
2021/12/02 11:14:42;;;;;;;5.00;1.20;;;;;;;6.27;72.08;95017.00;5033689;28;20060;-75
2021/12/02 11:17:12;;;;;;;0.50;0.50;;;;;;;6.06;71.51;95021.31;5033234;28;20050;-75
2021/12/02 11:19:43;;;;;;;1.40;0.40;;;;;;;5.87;72.19;95011.63;5043554;28;20061;-75
2021/12/02 11:22:12;;;;;;;3.15;0.77;;;;;;;5.68;73.68;95037.19;5053750;28;20046;-74
2021/12/02 11:24:40;;;;;;;0.88;0.47;;;;;;;5.58;73.73;95034.94;5037793;28;20049;-76
2021/12/02 11:27:12;;;;;;;0.75;0.50;;;;;;;5.45;73.77;95049.56;5033011;28;20054;-75
2021/12/02 11:29:48;;;;;;;0.65;0.35;;;;;;;5.32;74.13;95043.31;5033692;28;20167;-75
2021/12/02 11:32:31;;;;;;;0.30;0.30;;;;;;;5.23;74.79;95054.78;5033030;28;20499;-75
2021/12/02 11:35:06;;;;;;;2.78;0.43;;;;;;;5.14;74.62;95061.06;5033124;28;20056;-75
2021/12/02 11:37:35;;;;;;;0.75;0.55;;;;;;;5.07;74.13;95062.75;5033035;28;20526;-75
2021/12/02 11:40:06;;;;;;;1.85;0.50;;;;;;;4.99;74.33;95068.09;5033551;28;20041;-75
2021/12/02 11:42:38;;;;;;;0.57;0.30;;;;;;;4.92;74.79;95071.41;5032892;28;20049;-75
2021/12/02 11:45:07;;;;;;;0.90;0.57;;;;;;;4.89;75.16;95079.50;5032777;28;20046;-75
2021/12/02 11:47:36;;;;;;;1.05;0.65;;;;;;;4.87;76.01;95076.28;5035719;28;20056;-75
2021/12/02 11:50:07;;;;;;;1.77;0.45;;;;;;;4.86;75.96;95086.84;5036857;28;20056;-75
2021/12/02 11:52:36;;;;;;;0.45;0.45;;;;;;;4.81;75.35;95087.38;5036746;28;20506;-75
2021/12/02 11:55:07;;;;;;;1.48;0.30;;;;;;;4.73;75.53;95084.91;5037007;28;20049;-75
2021/12/02 11:57:36;;;;;;;0.90;0.47;;;;;;;4.69;76.17;95083.66;5037202;28;20057;-75
2021/12/02 12:00:08;;;;;;;1.25;1.15;;;;;;;4.68;76.74;95076.88;5036656;28;20423;-75
2021/12/02 12:02:37;;;;;;;0.52;0.45;;;;;;;4.69;75.99;95078.50;5036852;28;20053;-75